sensor_id;sensor_type;location;lat;lon;timestamp;P1;durP1;ratioP1;P2;durP2;ratioP2
29162;SDS011;20331;53.144;8.208;2022-12-29T00:01:27;2.70;;;2.50;;
29162;SDS011;20331;53.144;8.208;2022-12-29T00:11:49;2.80;;;2.53;;
29162;SDS011;20331;53.144;8.208;2022-12-29T00:22:13;4.90;;;2.85;;
29162;SDS011;20331;53.144;8.208;2022-12-29T00:43:34;4.10;;;3.20;;
29162;SDS011;20331;53.144;8.208;2022-12-29T00:54:14;5.03;;;3.85;;
29162;SDS011;20331;53.144;8.208;2022-12-29T01:04:38;5.20;;;3.80;;
29162;SDS011;20331;53.144;8.208;2022-12-29T01:14:59;4.97;;;3.70;;
29162;SDS011;20331;53.144;8.208;2022-12-29T01:25:21;3.73;;;3.30;;
29162;SDS011;20331;53.144;8.208;2022-12-29T01:35:42;3.60;;;3.30;;
29162;SDS011;20331;53.144;8.208;2022-12-29T01:46:04;9.80;;;2.80;;
29162;SDS011;20331;53.144;8.208;2022-12-29T01:56:55;3.90;;;2.70;;
29162;SDS011;20331;53.144;8.208;2022-12-29T02:07:22;2.78;;;2.30;;
29162;SDS011;20331;53.144;8.208;2022-12-29T02:38:50;2.78;;;2.30;;
29162;SDS011;20331;53.144;8.208;2022-12-29T02:49:38;3.10;;;2.00;;
29162;SDS011;20331;53.144;8.208;2022-12-29T03:00:09;2.13;;;2.00;;
29162;SDS011;20331;53.144;8.208;2022-12-29T03:21:12;5.13;;;2.25;;
29162;SDS011;20331;53.144;8.208;2022-12-29T03:31:39;2.92;;;2.15;;
29162;SDS011;20331;53.144;8.208;2022-12-29T03:42:05;2.10;;;1.90;;
29162;SDS011;20331;53.144;8.208;2022-12-29T03:52:32;3.35;;;1.98;;
29162;SDS011;20331;53.144;8.208;2022-12-29T04:02:54;1.92;;;1.40;;
29162;SDS011;20331;53.144;8.208;2022-12-29T04:13:16;3.53;;;1.45;;
29162;SDS011;20331;53.144;8.208;2022-12-29T04:34:00;1.90;;;0.80;;
29162;SDS011;20331;53.144;8.208;2022-12-29T04:44:21;1.92;;;1.08;;
29162;SDS011;20331;53.144;8.208;2022-12-29T04:54:43;0.80;;;0.80;;
29162;SDS011;20331;53.144;8.208;2022-12-29T05:05:05;3.67;;;0.90;;
29162;SDS011;20331;53.144;8.208;2022-12-29T05:15:27;0.82;;;0.65;;
29162;SDS011;20331;53.144;8.208;2022-12-29T05:25:49;0.70;;;0.60;;
29162;SDS011;20331;53.144;8.208;2022-12-29T05:36:10;1.23;;;0.60;;
29162;SDS011;20331;53.144;8.208;2022-12-29T05:56:54;2.43;;;0.50;;
29162;SDS011;20331;53.144;8.208;2022-12-29T06:07:16;0.43;;;0.40;;
29162;SDS011;20331;53.144;8.208;2022-12-29T06:17:37;0.67;;;0.50;;
29162;SDS011;20331;53.144;8.208;2022-12-29T06:27:59;1.30;;;0.50;;
29162;SDS011;20331;53.144;8.208;2022-12-29T06:38:21;1.58;;;0.70;;
29162;SDS011;20331;53.144;8.208;2022-12-29T06:48:42;3.47;;;0.83;;
29162;SDS011;20331;53.144;8.208;2022-12-29T06:59:04;4.97;;;1.40;;
29162;SDS011;20331;53.144;8.208;2022-12-29T07:09:26;3.75;;;1.35;;
29162;SDS011;20331;53.144;8.208;2022-12-29T07:19:47;1.87;;;0.77;;
29162;SDS011;20331;53.144;8.208;2022-12-29T07:30:09;1.20;;;0.63;;
29162;SDS011;20331;53.144;8.208;2022-12-29T07:40:31;4.57;;;1.00;;
29162;SDS011;20331;53.144;8.208;2022-12-29T07:50:53;2.63;;;0.83;;
29162;SDS011;20331;53.144;8.208;2022-12-29T08:01:14;4.47;;;0.85;;
29162;SDS011;20331;53.144;8.208;2022-12-29T08:11:36;4.90;;;1.10;;
29162;SDS011;20331;53.144;8.208;2022-12-29T08:21:58;5.60;;;0.98;;
29162;SDS011;20331;53.144;8.208;2022-12-29T08:32:19;6.43;;;1.40;;
29162;SDS011;20331;53.144;8.208;2022-12-29T08:42:41;6.17;;;1.20;;
29162;SDS011;20331;53.144;8.208;2022-12-29T08:53:02;7.87;;;1.20;;
29162;SDS011;20331;53.144;8.208;2022-12-29T09:03:24;6.70;;;1.00;;
29162;SDS011;20331;53.144;8.208;2022-12-29T09:14:06;5.47;;;0.90;;
29162;SDS011;20331;53.144;8.208;2022-12-29T09:24:28;5.38;;;1.10;;
29162;SDS011;20331;53.144;8.208;2022-12-29T09:34:49;12.38;;;1.40;;
29162;SDS011;20331;53.144;8.208;2022-12-29T09:45:14;10.23;;;1.60;;
29162;SDS011;20331;53.144;8.208;2022-12-29T09:55:44;9.00;;;1.30;;
29162;SDS011;20331;53.144;8.208;2022-12-29T10:06:11;5.97;;;1.10;;
29162;SDS011;20331;53.144;8.208;2022-12-29T10:16:41;3.97;;;1.10;;
29162;SDS011;20331;53.144;8.208;2022-12-29T10:27:04;3.95;;;0.90;;
29162;SDS011;20331;53.144;8.208;2022-12-29T10:37:38;7.22;;;1.25;;
29162;SDS011;20331;53.144;8.208;2022-12-29T10:48:12;5.90;;;1.17;;
29162;SDS011;20331;53.144;8.208;2022-12-29T10:58:48;6.78;;;1.00;;
29162;SDS011;20331;53.144;8.208;2022-12-29T11:09:12;5.35;;;1.10;;
29162;SDS011;20331;53.144;8.208;2022-12-29T11:19:37;9.27;;;1.55;;
29162;SDS011;20331;53.144;8.208;2022-12-29T11:30:01;7.63;;;1.40;;
29162;SDS011;20331;53.144;8.208;2022-12-29T11:40:24;6.88;;;1.45;;
29162;SDS011;20331;53.144;8.208;2022-12-29T11:50:51;5.05;;;1.23;;
29162;SDS011;20331;53.144;8.208;2022-12-29T12:01:23;6.50;;;1.17;;
29162;SDS011;20331;53.144;8.208;2022-12-29T12:11:58;8.00;;;1.17;;
29162;SDS011;20331;53.144;8.208;2022-12-29T12:22:24;8.15;;;1.33;;
29162;SDS011;20331;53.144;8.208;2022-12-29T12:33:00;6.35;;;1.00;;
29162;SDS011;20331;53.144;8.208;2022-12-29T13:15:15;8.70;;;1.90;;
29162;SDS011;20331;53.144;8.208;2022-12-29T13:25:46;6.13;;;1.15;;
29162;SDS011;20331;53.144;8.208;2022-12-29T13:46:44;9.10;;;1.30;;
29162;SDS011;20331;53.144;8.208;2022-12-29T13:57:10;7.65;;;1.30;;
29162;SDS011;20331;53.144;8.208;2022-12-29T14:07:48;7.82;;;1.20;;
29162;SDS011;20331;53.144;8.208;2022-12-29T14:28:44;11.32;;;1.80;;
29162;SDS011;20331;53.144;8.208;2022-12-29T14:49:56;9.48;;;1.80;;
29162;SDS011;20331;53.144;8.208;2022-12-29T15:00:26;9.98;;;1.75;;
29162;SDS011;20331;53.144;8.208;2022-12-29T15:21:43;11.40;;;1.67;;
29162;SDS011;20331;53.144;8.208;2022-12-29T15:32:16;7.70;;;1.70;;
29162;SDS011;20331;53.144;8.208;2022-12-29T15:53:49;8.85;;;1.63;;
29162;SDS011;20331;53.144;8.208;2022-12-29T16:04:12;10.25;;;1.80;;
29162;SDS011;20331;53.144;8.208;2022-12-29T16:35:56;11.30;;;2.05;;
29162;SDS011;20331;53.144;8.208;2022-12-29T16:46:21;13.53;;;3.07;;
29162;SDS011;20331;53.144;8.208;2022-12-29T16:56:47;14.82;;;2.47;;
29162;SDS011;20331;53.144;8.208;2022-12-29T17:07:20;13.35;;;2.58;;
29162;SDS011;20331;53.144;8.208;2022-12-29T17:17:47;9.90;;;2.17;;
29162;SDS011;20331;53.144;8.208;2022-12-29T17:28:20;9.85;;;2.50;;
29162;SDS011;20331;53.144;8.208;2022-12-29T17:38:45;10.20;;;2.97;;
29162;SDS011;20331;53.144;8.208;2022-12-29T17:49:11;9.48;;;2.83;;
29162;SDS011;20331;53.144;8.208;2022-12-29T17:59:34;8.07;;;2.55;;
29162;SDS011;20331;53.144;8.208;2022-12-29T18:09:56;11.17;;;2.63;;
29162;SDS011;20331;53.144;8.208;2022-12-29T18:20:17;10.55;;;2.40;;
29162;SDS011;20331;53.144;8.208;2022-12-29T18:30:39;6.43;;;2.20;;
29162;SDS011;20331;53.144;8.208;2022-12-29T18:41:01;3.08;;;0.70;;
29162;SDS011;20331;53.144;8.208;2022-12-29T18:51:23;1.80;;;0.57;;
29162;SDS011;20331;53.144;8.208;2022-12-29T19:01:45;2.90;;;0.63;;
29162;SDS011;20331;53.144;8.208;2022-12-29T19:12:07;4.03;;;1.43;;
29162;SDS011;20331;53.144;8.208;2022-12-29T19:22:29;4.50;;;1.43;;
29162;SDS011;20331;53.144;8.208;2022-12-29T19:32:51;6.43;;;2.10;;
29162;SDS011;20331;53.144;8.208;2022-12-29T19:43:14;9.75;;;1.83;;
29162;SDS011;20331;53.144;8.208;2022-12-29T19:53:36;7.18;;;1.60;;
29162;SDS011;20331;53.144;8.208;2022-12-29T20:03:58;6.90;;;1.52;;
29162;SDS011;20331;53.144;8.208;2022-12-29T20:14:20;5.93;;;1.75;;
29162;SDS011;20331;53.144;8.208;2022-12-29T20:24:42;8.80;;;2.40;;
29162;SDS011;20331;53.144;8.208;2022-12-29T20:35:10;6.88;;;2.10;;
29162;SDS011;20331;53.144;8.208;2022-12-29T20:45:32;7.68;;;2.38;;
29162;SDS011;20331;53.144;8.208;2022-12-29T20:55:58;11.53;;;2.70;;
29162;SDS011;20331;53.144;8.208;2022-12-29T21:06:21;18.17;;;2.53;;
29162;SDS011;20331;53.144;8.208;2022-12-29T21:16:43;14.03;;;2.20;;
29162;SDS011;20331;53.144;8.208;2022-12-29T21:27:04;17.17;;;2.53;;
29162;SDS011;20331;53.144;8.208;2022-12-29T21:37:26;14.33;;;2.43;;
29162;SDS011;20331;53.144;8.208;2022-12-29T21:47:48;13.47;;;2.40;;
29162;SDS011;20331;53.144;8.208;2022-12-29T21:58:28;15.20;;;2.47;;
29162;SDS011;20331;53.144;8.208;2022-12-29T22:09:08;15.65;;;2.50;;
29162;SDS011;20331;53.144;8.208;2022-12-29T22:19:48;24.85;;;3.30;;
29162;SDS011;20331;53.144;8.208;2022-12-29T22:30:10;12.97;;;2.57;;
29162;SDS011;20331;53.144;8.208;2022-12-29T22:40:32;15.93;;;2.97;;
29162;SDS011;20331;53.144;8.208;2022-12-29T22:50:53;21.67;;;2.90;;
29162;SDS011;20331;53.144;8.208;2022-12-29T23:01:17;11.90;;;2.65;;
29162;SDS011;20331;53.144;8.208;2022-12-29T23:11:43;18.10;;;2.75;;
29162;SDS011;20331;53.144;8.208;2022-12-29T23:22:05;24.05;;;3.10;;
29162;SDS011;20331;53.144;8.208;2022-12-29T23:32:26;22.60;;;3.30;;
29162;SDS011;20331;53.144;8.208;2022-12-29T23:42:48;22.43;;;3.10;;
29162;SDS011;20331;53.144;8.208;2022-12-29T23:53:10;17.53;;;2.87;;
